createdAt,value
2023-01-05T00:01:06.086Z,100.00
2023-01-05T00:03:33.367Z,100.00
2023-01-05T00:06:15.847Z,100.00
2023-01-05T00:08:42.485Z,100.00
2023-01-05T00:11:33.486Z,100.00
2023-01-05T00:14:18.898Z,100.00
2023-01-05T00:17:04.020Z,100.00
2023-01-05T00:19:49.151Z,100.00
2023-01-05T00:22:34.671Z,100.00
2023-01-05T00:25:12.543Z,100.00
2023-01-05T00:27:41.712Z,100.00
2023-01-05T00:30:10.739Z,100.00
2023-01-05T00:32:37.329Z,100.00
2023-01-05T00:35:04.179Z,100.00
2023-01-05T00:37:32.941Z,100.00
2023-01-05T00:39:59.441Z,100.00
2023-01-05T00:42:26.463Z,100.00
2023-01-05T00:44:53.716Z,100.00
2023-01-05T00:47:20.202Z,100.00
2023-01-05T00:49:46.635Z,100.00
2023-01-05T00:52:13.085Z,100.00
2023-01-05T00:54:39.661Z,100.00
2023-01-05T00:57:07.483Z,100.00
2023-01-05T00:59:34.072Z,100.00
2023-01-05T01:02:00.964Z,100.00
2023-01-05T01:04:27.870Z,100.00
2023-01-05T01:06:54.750Z,100.00
2023-01-05T01:09:21.761Z,100.00
2023-01-05T01:11:48.377Z,100.00
2023-01-05T01:14:15.205Z,100.00
2023-01-05T01:16:42.859Z,100.00
2023-01-05T01:19:14.171Z,100.00
2023-01-05T01:21:40.615Z,100.00
2023-01-05T01:24:07.375Z,100.00
2023-01-05T01:26:33.890Z,100.00
2023-01-05T01:29:00.419Z,100.00
2023-01-05T01:31:26.994Z,100.00
2023-01-05T01:33:53.587Z,100.00
2023-01-05T01:36:20.521Z,100.00
2023-01-05T01:38:47.057Z,100.00
2023-01-05T01:41:14.021Z,100.00
2023-01-05T01:43:47.985Z,100.00
2023-01-05T01:46:16.436Z,100.00
2023-01-05T01:48:48.519Z,100.00
2023-01-05T01:51:27.073Z,100.00
2023-01-05T01:53:58.300Z,99.59
2023-01-05T01:56:27.322Z,99.85
2023-01-05T01:58:54.310Z,100.00
2023-01-05T02:01:21.187Z,100.00
2023-01-05T02:03:47.960Z,100.00
2023-01-05T02:06:14.725Z,100.00
2023-01-05T02:08:41.302Z,100.00
2023-01-05T02:11:10.575Z,100.00
2023-01-05T02:13:53.252Z,100.00
2023-01-05T02:16:50.825Z,100.00
2023-01-05T02:19:51.265Z,100.00
2023-01-05T02:22:23.751Z,100.00
2023-01-05T02:25:38.446Z,100.00
2023-01-05T02:28:26.077Z,100.00
2023-01-05T02:30:59.532Z,100.00
2023-01-05T02:33:58.118Z,100.00
2023-01-05T02:36:39.635Z,100.00
2023-01-05T02:39:06.026Z,100.00
2023-01-05T02:42:01.700Z,100.00
2023-01-05T02:44:31.030Z,100.00
2023-01-05T02:47:03.448Z,100.00
2023-01-05T02:49:32.843Z,100.00
2023-01-05T02:52:01.529Z,100.00
2023-01-05T02:54:35.104Z,100.00
2023-01-05T02:57:08.805Z,100.00
2023-01-05T02:59:45.098Z,100.00
2023-01-05T03:02:26.319Z,100.00
2023-01-05T03:04:59.501Z,100.00
2023-01-05T03:07:31.283Z,100.00
2023-01-05T03:09:57.751Z,100.00
2023-01-05T03:12:46.245Z,100.00
2023-01-05T03:15:19.708Z,100.00
2023-01-05T03:17:50.383Z,100.00
2023-01-05T03:20:21.852Z,100.00
2023-01-05T03:23:09.661Z,100.00
2023-01-05T03:25:58.082Z,100.00
2023-01-05T03:28:48.560Z,100.00
2023-01-05T03:31:46.448Z,100.00
2023-01-05T03:34:55.900Z,100.00
2023-01-05T03:37:28.619Z,100.00
2023-01-05T03:39:55.137Z,100.00
2023-01-05T03:42:21.931Z,100.00
2023-01-05T03:44:49.258Z,100.00
2023-01-05T03:47:15.832Z,100.00
2023-01-05T03:49:42.441Z,100.00
2023-01-05T03:52:08.871Z,100.00
2023-01-05T03:54:35.328Z,100.00
2023-01-05T03:57:01.812Z,100.00
2023-01-05T03:59:28.297Z,100.00
2023-01-05T04:01:54.840Z,100.00
2023-01-05T04:04:21.472Z,100.00
2023-01-05T04:06:47.909Z,100.00
2023-01-05T04:09:14.410Z,100.00
2023-01-05T04:11:40.906Z,100.00
2023-01-05T04:14:07.471Z,100.00
2023-01-05T04:16:34.166Z,99.96
2023-01-05T04:19:01.835Z,100.00
2023-01-05T04:21:28.337Z,100.00
2023-01-05T04:23:54.913Z,100.00
2023-01-05T04:26:21.385Z,100.00
2023-01-05T04:28:47.884Z,100.00
2023-01-05T04:31:14.425Z,100.00
2023-01-05T04:33:40.974Z,99.53
2023-01-05T04:36:08.236Z,99.43
2023-01-05T04:38:34.707Z,99.53
2023-01-05T04:41:01.267Z,98.73
2023-01-05T04:43:27.892Z,99.04
2023-01-05T04:45:54.436Z,99.27
2023-01-05T04:48:20.975Z,99.17
2023-01-05T04:50:54.547Z,99.05
2023-01-05T04:53:22.675Z,98.62
2023-01-05T04:55:49.931Z,98.11
2023-01-05T04:58:16.636Z,98.41
2023-01-05T05:00:43.132Z,98.61
2023-01-05T05:03:09.685Z,98.42
2023-01-05T05:05:36.248Z,98.63
2023-01-05T05:08:02.825Z,98.30
2023-01-05T05:10:29.306Z,98.68
2023-01-05T05:12:55.784Z,99.05
2023-01-05T05:15:22.347Z,98.84
2023-01-05T05:17:48.867Z,99.16
2023-01-05T05:20:15.810Z,99.31
2023-01-05T05:22:42.340Z,98.89
2023-01-05T05:25:09.118Z,98.94
2023-01-05T05:27:35.836Z,99.28
2023-01-05T05:30:02.482Z,99.48
2023-01-05T05:32:28.971Z,99.70
2023-01-05T05:34:55.454Z,99.80
2023-01-05T05:37:21.944Z,99.94
2023-01-05T05:39:48.453Z,99.96
2023-01-05T05:42:14.920Z,100.00
2023-01-05T05:44:41.439Z,100.00
2023-01-05T05:47:07.909Z,100.00
2023-01-05T05:49:34.476Z,100.00
2023-01-05T05:52:00.991Z,100.00
2023-01-05T05:54:27.559Z,100.00
2023-01-05T05:56:54.149Z,100.00
2023-01-05T05:59:20.700Z,100.00
2023-01-05T06:01:47.336Z,99.74
2023-01-05T06:04:13.932Z,99.77
2023-01-05T06:06:40.624Z,99.51
2023-01-05T06:09:07.104Z,99.77
2023-01-05T06:11:33.702Z,99.72
2023-01-05T06:14:00.620Z,99.93
2023-01-05T06:16:27.149Z,100.00
2023-01-05T06:18:53.707Z,100.00
2023-01-05T06:21:22.017Z,100.00
2023-01-05T06:23:48.659Z,100.00
2023-01-05T06:26:15.304Z,100.00
2023-01-05T06:28:41.873Z,100.00
2023-01-05T06:31:08.535Z,100.00
2023-01-05T06:33:35.110Z,100.00
2023-01-05T06:36:01.600Z,100.00
2023-01-05T06:38:28.176Z,100.00
2023-01-05T06:40:54.757Z,100.00
2023-01-05T06:43:21.588Z,100.00
2023-01-05T06:45:48.188Z,100.00
2023-01-05T06:48:14.745Z,100.00
2023-01-05T06:50:41.328Z,99.87
2023-01-05T06:53:07.954Z,99.87
2023-01-05T06:55:34.474Z,99.96
2023-01-05T06:58:01.541Z,100.00
2023-01-05T07:00:29.249Z,100.00
2023-01-05T07:02:56.163Z,100.00
2023-01-05T07:05:24.700Z,100.00
2023-01-05T07:07:51.491Z,99.87
2023-01-05T07:10:18.260Z,100.00
2023-01-05T07:12:44.921Z,99.50
2023-01-05T07:15:11.628Z,99.35
2023-01-05T07:17:38.154Z,99.11
2023-01-05T07:20:06.317Z,99.06
2023-01-05T07:22:32.847Z,99.42
2023-01-05T07:25:00.054Z,99.54
2023-01-05T07:27:26.607Z,99.48
2023-01-05T07:29:53.114Z,99.03
2023-01-05T07:32:19.624Z,98.97
2023-01-05T07:34:54.750Z,98.59
2023-01-05T07:37:24.778Z,98.37
2023-01-05T07:39:51.673Z,98.29
2023-01-05T07:42:18.205Z,98.51
2023-01-05T07:44:45.345Z,98.16
2023-01-05T07:47:12.048Z,97.94
2023-01-05T07:49:38.702Z,98.56
2023-01-05T07:52:05.246Z,98.70
2023-01-05T07:54:31.728Z,98.59
2023-01-05T07:56:58.276Z,99.12
2023-01-05T07:59:24.830Z,98.38
2023-01-05T08:01:51.542Z,97.84
2023-01-05T08:04:18.146Z,97.68
2023-01-05T08:06:44.682Z,97.68
2023-01-05T08:09:29.758Z,96.89
2023-01-05T08:11:56.247Z,96.42
2023-01-05T08:14:22.780Z,96.09
2023-01-05T08:16:49.530Z,96.70
2023-01-05T08:19:16.124Z,95.89
2023-01-05T08:21:42.627Z,95.43
2023-01-05T08:24:09.072Z,94.85
2023-01-05T08:26:35.633Z,94.59
2023-01-05T08:29:02.211Z,94.28
2023-01-05T08:31:30.784Z,93.69
2023-01-05T08:33:59.841Z,94.11
2023-01-05T08:36:26.680Z,94.01
2023-01-05T08:38:54.730Z,93.77
2023-01-05T08:41:28.118Z,93.33
2023-01-05T08:43:55.817Z,93.02
2023-01-05T08:46:25.535Z,93.28
2023-01-05T08:48:54.652Z,93.86
2023-01-05T08:51:21.318Z,93.42
2023-01-05T08:53:48.407Z,93.26
2023-01-05T08:56:15.306Z,93.31
2023-01-05T08:58:42.721Z,93.04
2023-01-05T09:01:17.097Z,92.82
2023-01-05T09:03:44.053Z,92.29
2023-01-05T09:06:12.416Z,92.11
2023-01-05T09:08:40.694Z,91.67
2023-01-05T09:11:08.257Z,90.94
2023-01-05T09:13:35.622Z,92.07
2023-01-05T09:16:11.479Z,91.86
2023-01-05T09:18:39.561Z,90.50
2023-01-05T09:21:06.713Z,88.51
2023-01-05T09:23:34.004Z,85.25
2023-01-05T09:26:00.635Z,87.47
2023-01-05T09:28:27.162Z,88.35
2023-01-05T09:30:53.768Z,88.58
2023-01-05T09:33:20.579Z,88.11
2023-01-05T09:35:57.032Z,88.29
2023-01-05T09:38:24.255Z,89.24
2023-01-05T09:40:54.287Z,89.27
2023-01-05T09:43:36.862Z,88.95
2023-01-05T09:46:07.552Z,88.39
2023-01-05T09:48:40.313Z,86.99
2023-01-05T09:51:08.809Z,84.01
2023-01-05T09:53:36.128Z,84.20
2023-01-05T09:56:03.514Z,84.85
2023-01-05T09:58:39.941Z,85.46
2023-01-05T10:01:14.451Z,85.79
2023-01-05T10:04:04.864Z,86.66
2023-01-05T10:06:44.802Z,87.91
2023-01-05T10:09:18.250Z,88.34
2023-01-05T10:12:47.580Z,88.43
2023-01-05T10:15:17.446Z,89.66
2023-01-05T10:17:44.927Z,89.38
2023-01-05T10:20:16.233Z,89.11
2023-01-05T10:22:57.879Z,90.38
2023-01-05T10:25:36.405Z,90.97
2023-01-05T10:28:34.816Z,90.90
2023-01-05T10:31:19.548Z,91.42
2023-01-05T10:33:56.694Z,91.84
2023-01-05T10:37:08.852Z,91.48
2023-01-05T10:40:13.195Z,91.52
2023-01-05T10:43:01.315Z,91.58
2023-01-05T10:45:30.773Z,92.10
2023-01-05T10:47:58.843Z,92.80
2023-01-05T10:50:28.797Z,94.03
2023-01-05T10:52:55.471Z,93.97
2023-01-05T10:55:24.069Z,94.18
2023-01-05T10:57:50.990Z,94.40
2023-01-05T11:00:37.766Z,94.69
2023-01-05T11:03:07.432Z,94.40
2023-01-05T11:05:37.429Z,96.08
2023-01-05T11:08:21.647Z,97.57
2023-01-05T11:10:58.670Z,99.58
2023-01-05T11:13:28.930Z,100.00
2023-01-05T11:15:59.992Z,100.00
2023-01-05T11:18:42.428Z,100.00
2023-01-05T11:21:20.972Z,100.00
2023-01-05T11:23:48.620Z,100.00
2023-01-05T11:26:17.969Z,100.00
2023-01-05T11:29:09.036Z,100.00
2023-01-05T11:31:37.411Z,100.00
2023-01-05T11:34:27.021Z,100.00
2023-01-05T11:37:00.195Z,100.00
2023-01-05T11:39:38.048Z,100.00
2023-01-05T11:42:24.923Z,100.00
2023-01-05T11:45:10.365Z,100.00
2023-01-05T11:47:44.390Z,100.00
2023-01-05T11:50:14.288Z,100.00
2023-01-05T11:52:42.566Z,100.00
2023-01-05T11:55:21.692Z,100.00
2023-01-05T11:57:52.765Z,100.00
2023-01-05T12:00:26.743Z,100.00
2023-01-05T12:03:18.717Z,100.00
2023-01-05T12:05:57.642Z,100.00
2023-01-05T12:09:03.195Z,100.00
2023-01-05T12:11:40.261Z,100.00
2023-01-05T12:14:09.403Z,100.00
2023-01-05T12:16:56.489Z,100.00
2023-01-05T12:19:22.936Z,100.00
2023-01-05T12:22:08.478Z,100.00
2023-01-05T12:24:40.953Z,100.00
2023-01-05T12:27:44.296Z,100.00
2023-01-05T12:34:08.549Z,100.00
2023-01-05T12:36:40.371Z,100.00
2023-01-05T12:39:06.878Z,100.00
2023-01-05T12:41:45.401Z,100.00
2023-01-05T12:44:17.909Z,100.00
2023-01-05T12:47:02.334Z,99.31
2023-01-05T12:49:39.863Z,98.91
2023-01-05T12:52:24.819Z,97.15
2023-01-05T12:55:13.230Z,94.14
2023-01-05T12:57:45.612Z,93.30
2023-01-05T13:00:19.161Z,91.83
2023-01-05T13:03:01.489Z,91.59
2023-01-05T13:05:34.289Z,91.60
2023-01-05T13:08:08.728Z,91.33
2023-01-05T13:11:01.812Z,90.41
2023-01-05T13:13:39.312Z,92.40
2023-01-05T13:16:11.184Z,90.45
2023-01-05T13:18:43.170Z,90.13
2023-01-05T13:21:15.032Z,90.27
2023-01-05T13:23:45.740Z,90.32
2023-01-05T13:26:15.295Z,90.17
2023-01-05T13:28:42.503Z,90.48
2023-01-05T13:31:27.475Z,89.32
2023-01-05T13:33:59.781Z,88.60
2023-01-05T13:36:37.987Z,88.56
2023-01-05T13:39:55.514Z,88.83
2023-01-05T13:42:39.888Z,88.29
2023-01-05T13:45:28.186Z,88.50
2023-01-05T13:48:34.072Z,88.62
2023-01-05T13:51:26.236Z,87.59
2023-01-05T13:53:56.604Z,87.96
2023-01-05T13:56:26.480Z,88.41
2023-01-05T13:58:58.475Z,88.57
2023-01-05T14:01:43.368Z,88.80
2023-01-05T14:04:34.756Z,88.28
2023-01-05T14:07:07.217Z,88.32
2023-01-05T14:09:45.207Z,88.76
2023-01-05T14:12:11.717Z,88.97
2023-01-05T14:15:12.221Z,89.94
2023-01-05T14:17:58.346Z,91.83
2023-01-05T14:20:33.865Z,93.03
2023-01-05T14:23:01.725Z,93.73
2023-01-05T14:25:40.493Z,94.53
2023-01-05T14:28:23.798Z,94.00
2023-01-05T14:30:52.865Z,94.10
2023-01-05T14:33:20.523Z,94.75
2023-01-05T14:35:47.470Z,94.29
2023-01-05T14:38:13.916Z,94.29
2023-01-05T14:40:49.583Z,94.93
2023-01-05T14:43:27.252Z,94.25
2023-01-05T14:46:05.154Z,94.86
2023-01-05T14:49:00.605Z,94.14
2023-01-05T14:51:29.933Z,94.61
2023-01-05T14:54:05.335Z,94.75
2023-01-05T14:56:34.811Z,94.95
2023-01-05T14:59:21.943Z,94.21
2023-01-05T15:01:59.524Z,95.69
2023-01-05T15:04:30.979Z,95.03
2023-01-05T15:07:41.680Z,95.08
2023-01-05T15:10:11.005Z,95.63
2023-01-05T15:13:03.696Z,94.91
2023-01-05T15:15:42.320Z,95.49
2023-01-05T15:18:24.279Z,96.10
2023-01-05T15:21:11.029Z,95.70
2023-01-05T15:23:43.181Z,96.94
2023-01-05T15:26:10.082Z,97.39
2023-01-05T15:28:48.550Z,93.29
2023-01-05T15:31:33.159Z,92.49
2023-01-05T15:34:23.158Z,92.74
2023-01-05T15:37:05.401Z,93.63
2023-01-05T15:39:36.953Z,93.97
2023-01-05T15:42:09.078Z,94.37
2023-01-05T15:44:39.486Z,95.21
2023-01-05T15:47:10.503Z,95.09
2023-01-05T15:49:38.432Z,95.95
2023-01-05T15:52:05.330Z,96.88
2023-01-05T15:54:33.502Z,97.97
2023-01-05T15:57:01.872Z,98.73
2023-01-05T15:59:36.076Z,99.49
2023-01-05T16:02:15.966Z,99.19
2023-01-05T16:04:42.604Z,99.47
2023-01-05T16:07:11.023Z,100.00
2023-01-05T16:09:40.102Z,100.00
2023-01-05T16:12:23.275Z,100.00
2023-01-05T16:15:01.735Z,100.00
2023-01-05T16:17:31.890Z,100.00
2023-01-05T16:20:08.121Z,99.88
2023-01-05T16:22:52.808Z,100.00
2023-01-05T16:25:27.380Z,99.87
2023-01-05T16:28:01.794Z,100.00
2023-01-05T16:30:35.602Z,98.54
2023-01-05T16:33:05.324Z,97.22
2023-01-05T16:35:46.340Z,95.49
2023-01-05T16:38:14.533Z,93.61
2023-01-05T16:40:46.721Z,93.15
2023-01-05T16:43:21.185Z,92.01
2023-01-05T16:45:50.240Z,92.77
2023-01-05T16:48:35.126Z,92.74
2023-01-05T16:51:12.512Z,94.02
2023-01-05T16:53:45.130Z,94.00
2023-01-05T16:56:22.801Z,93.78
2023-01-05T16:58:49.654Z,93.99
2023-01-05T17:01:22.783Z,94.42
2023-01-05T17:03:49.443Z,94.89
2023-01-05T17:06:24.259Z,95.12
2023-01-05T17:08:51.936Z,94.58
2023-01-05T17:11:18.434Z,95.58
2023-01-05T17:13:50.194Z,95.19
2023-01-05T17:16:16.755Z,96.48
2023-01-05T17:18:43.289Z,96.04
2023-01-05T17:21:16.500Z,95.55
2023-01-05T17:23:47.314Z,95.68
2023-01-05T17:26:18.998Z,95.10
2023-01-05T17:28:45.739Z,94.49
2023-01-05T17:33:43.697Z,95.66
2023-01-05T17:36:10.521Z,96.15
2023-01-05T17:38:37.318Z,96.61
2023-01-05T17:41:03.941Z,96.64
2023-01-05T17:43:30.426Z,96.36
2023-01-05T17:45:57.110Z,96.48
2023-01-05T17:48:23.790Z,100.00
2023-01-05T17:50:52.893Z,100.00
2023-01-05T17:53:20.644Z,95.88
2023-01-05T17:55:47.176Z,96.03
2023-01-05T17:58:14.751Z,96.79
2023-01-05T18:03:21.559Z,98.11
2023-01-05T18:05:51.160Z,98.86
2023-01-05T18:08:19.337Z,98.78
2023-01-05T18:10:46.696Z,99.21
2023-01-05T18:13:14.422Z,99.06
2023-01-05T18:15:44.021Z,99.34
2023-01-05T18:18:11.275Z,99.61
2023-01-05T18:20:41.172Z,100.00
2023-01-05T18:23:08.936Z,98.80
2023-01-05T18:25:35.940Z,98.97
2023-01-05T18:28:02.506Z,99.94
2023-01-05T18:30:29.091Z,99.77
2023-01-05T18:32:55.611Z,99.72
2023-01-05T18:35:22.144Z,100.00
2023-01-05T18:37:48.713Z,100.00
2023-01-05T18:40:15.581Z,100.00
2023-01-05T18:42:42.240Z,100.00
2023-01-05T18:45:19.194Z,100.00
2023-01-05T18:47:54.925Z,100.00
2023-01-05T18:50:21.396Z,100.00
2023-01-05T18:52:48.709Z,100.00
2023-01-05T18:55:15.308Z,100.00
2023-01-05T18:57:41.761Z,100.00
2023-01-05T19:00:08.859Z,100.00
2023-01-05T19:02:35.340Z,100.00
2023-01-05T19:05:02.125Z,100.00
2023-01-05T19:07:28.576Z,100.00
2023-01-05T19:09:55.063Z,100.00
2023-01-05T19:12:21.607Z,100.00
2023-01-05T19:14:48.260Z,100.00
2023-01-05T19:17:14.722Z,100.00
2023-01-05T19:19:41.375Z,100.00
2023-01-05T19:22:08.032Z,100.00
2023-01-05T19:24:35.320Z,100.00
2023-01-05T19:27:01.813Z,100.00
2023-01-05T19:29:28.388Z,100.00
2023-01-05T19:31:54.988Z,100.00
2023-01-05T19:34:22.199Z,100.00
2023-01-05T19:36:48.771Z,100.00
2023-01-05T19:39:17.627Z,100.00
2023-01-05T19:41:47.152Z,100.00
2023-01-05T19:44:16.171Z,100.00
2023-01-05T19:46:43.627Z,100.00
2023-01-05T19:49:17.474Z,100.00
2023-01-05T19:51:45.379Z,100.00
2023-01-05T19:54:12.696Z,100.00
2023-01-05T19:56:39.967Z,100.00
2023-01-05T19:59:14.817Z,100.00
2023-01-05T20:01:41.543Z,100.00
2023-01-05T20:04:08.058Z,100.00
2023-01-05T20:06:37.938Z,100.00
2023-01-05T20:09:09.293Z,100.00
2023-01-05T20:11:40.799Z,100.00
2023-01-05T20:14:18.230Z,100.00
2023-01-05T20:16:48.684Z,100.00
2023-01-05T20:19:16.751Z,100.00
2023-01-05T20:21:43.340Z,100.00
2023-01-05T20:24:15.524Z,100.00
2023-01-05T20:26:42.342Z,100.00
2023-01-05T20:29:09.952Z,100.00
2023-01-05T20:31:40.485Z,100.00
2023-01-05T20:34:12.794Z,100.00
2023-01-05T20:36:39.840Z,100.00
2023-01-05T20:39:08.496Z,100.00
2023-01-05T20:41:38.786Z,100.00
2023-01-05T20:44:05.991Z,100.00
2023-01-05T20:46:40.173Z,100.00
2023-01-05T20:49:06.970Z,100.00
2023-01-05T20:51:34.113Z,100.00
2023-01-05T20:54:02.497Z,100.00
2023-01-05T20:56:38.465Z,100.00
2023-01-05T20:59:11.920Z,100.00
2023-01-05T21:01:38.508Z,100.00
2023-01-05T21:04:06.166Z,100.00
2023-01-05T21:06:33.855Z,100.00
2023-01-05T21:09:00.419Z,100.00
2023-01-05T21:11:27.188Z,100.00
2023-01-05T21:13:54.815Z,100.00
2023-01-05T21:16:27.765Z,100.00
2023-01-05T21:18:55.097Z,100.00
2023-01-05T21:21:23.719Z,100.00
2023-01-05T21:23:52.047Z,100.00
2023-01-05T21:26:20.408Z,100.00
2023-01-05T21:28:48.932Z,100.00
2023-01-05T21:31:17.748Z,100.00
2023-01-05T21:33:45.033Z,100.00
2023-01-05T21:36:23.211Z,100.00
2023-01-05T21:39:01.712Z,100.00
2023-01-05T21:41:50.054Z,100.00
2023-01-05T21:44:17.091Z,100.00
2023-01-05T21:46:43.744Z,100.00
2023-01-05T21:49:11.916Z,100.00
2023-01-05T21:51:57.345Z,100.00
2023-01-05T21:54:43.036Z,100.00
2023-01-05T21:57:09.697Z,100.00
2023-01-05T21:59:36.281Z,100.00
2023-01-05T22:02:02.821Z,100.00
2023-01-05T22:04:29.316Z,100.00
2023-01-05T22:06:55.923Z,100.00
2023-01-05T22:09:22.480Z,100.00
2023-01-05T22:11:49.162Z,100.00
2023-01-05T22:14:16.094Z,100.00
2023-01-05T22:16:42.866Z,100.00
2023-01-05T22:19:10.947Z,100.00
2023-01-05T22:21:37.715Z,100.00
2023-01-05T22:24:04.751Z,100.00
2023-01-05T22:26:31.352Z,100.00
2023-01-05T22:28:57.820Z,100.00
2023-01-05T22:31:27.255Z,100.00
2023-01-05T22:33:56.724Z,100.00
2023-01-05T22:36:24.725Z,100.00
2023-01-05T22:38:55.149Z,100.00
2023-01-05T22:41:26.981Z,100.00
2023-01-05T22:43:53.652Z,100.00
2023-01-05T22:46:22.827Z,100.00
2023-01-05T22:48:51.154Z,100.00
2023-01-05T22:51:20.609Z,100.00
2023-01-05T22:53:48.268Z,100.00
2023-01-05T22:56:17.113Z,100.00
2023-01-05T22:58:43.665Z,100.00
2023-01-05T23:01:14.072Z,100.00
2023-01-05T23:03:41.601Z,100.00
2023-01-05T23:06:09.000Z,100.00
2023-01-05T23:08:37.670Z,100.00
2023-01-05T23:11:10.093Z,100.00
2023-01-05T23:13:37.070Z,100.00
2023-01-05T23:16:05.231Z,100.00
2023-01-05T23:18:32.191Z,100.00
2023-01-05T23:21:01.747Z,100.00
2023-01-05T23:23:29.996Z,100.00
2023-01-05T23:25:56.970Z,100.00
2023-01-05T23:28:25.551Z,100.00
2023-01-05T23:30:53.778Z,100.00
2023-01-05T23:33:22.405Z,100.00
2023-01-05T23:35:51.507Z,100.00
2023-01-05T23:38:18.240Z,100.00
2023-01-05T23:40:47.938Z,100.00
2023-01-05T23:43:17.909Z,100.00
2023-01-05T23:45:45.074Z,100.00
2023-01-05T23:48:12.336Z,100.00
2023-01-05T23:50:47.492Z,100.00
2023-01-05T23:53:14.841Z,100.00
2023-01-05T23:55:41.596Z,100.00
2023-01-05T23:58:09.303Z,100.00
